Camp Hill, Alabama
Current Conditions -  °F | °C
As of 5:15 PM on Friday 19 Dec 2014 (Local Time) from KAUO Reporting Station
Broken Clouds Broken Clouds  
Wind Chill: 46°   Ceiling: 9000
Heat Index: 48°   Visibility: 10mi
Dew Point: 36°   Wind: 5mph
Humidity: 62%   Direction: 300°WNW
Pressure: 30.16"   Gusts: NA
Location:  32.8°N, 85.65°W
Report Text: KAUO 192315Z AUTO 30004KT 10SM FEW060 FEW065 BKN090 09/02 A3016 RMK AO1
Loading
Personal Weather Stations






























Interactive Weather Map New forecast layout! Learn more

10-Day Weather Forecast

Advertisements
Track Severe Weather on mobile